createdAt,value
2022-10-01T00:00:18.250Z,13.03
2022-10-01T00:01:21.032Z,13.08
2022-10-01T00:02:24.154Z,13.07
2022-10-01T00:04:40.219Z,13.21
2022-10-01T00:05:44.811Z,13.27
2022-10-01T00:06:47.603Z,13.20
2022-10-01T00:07:50.902Z,13.17
2022-10-01T00:08:53.773Z,13.13
2022-10-01T00:09:57.611Z,13.15
2022-10-01T00:11:01.992Z,13.29
2022-10-01T00:12:11.401Z,13.29
2022-10-01T00:13:14.446Z,13.24
2022-10-01T00:14:17.673Z,13.20
2022-10-01T00:15:22.150Z,13.22
2022-10-01T00:16:28.578Z,13.17
2022-10-01T00:17:31.389Z,13.13
2022-10-01T00:18:37.246Z,13.07
2022-10-01T00:19:40.107Z,13.09
2022-10-01T00:20:43.909Z,13.11
2022-10-01T00:21:46.787Z,13.10
2022-10-01T00:22:49.816Z,13.13
2022-10-01T00:24:04.911Z,13.09
2022-10-01T00:25:07.993Z,13.07
2022-10-01T00:26:23.777Z,13.07
2022-10-01T00:27:27.556Z,13.08
2022-10-01T00:28:30.456Z,13.08
2022-10-01T00:29:33.289Z,13.08
2022-10-01T00:30:40.247Z,13.15
2022-10-01T00:31:43.843Z,13.24
2022-10-01T00:32:46.878Z,13.22
2022-10-01T00:33:52.054Z,13.16
2022-10-01T00:35:04.592Z,13.17
2022-10-01T00:36:09.451Z,13.18
2022-10-01T00:37:12.993Z,13.17
2022-10-01T00:38:15.830Z,13.34
2022-10-01T00:39:18.677Z,13.29
2022-10-01T00:40:22.574Z,13.23
2022-10-01T00:41:27.171Z,13.20
2022-10-01T00:42:30.342Z,13.17
2022-10-01T00:43:36.946Z,13.18
2022-10-01T00:44:39.685Z,13.16
2022-10-01T00:45:42.686Z,13.14
2022-10-01T00:46:46.558Z,13.10
2022-10-01T00:47:54.802Z,13.09
2022-10-01T00:49:02.881Z,13.09
2022-10-01T00:50:15.995Z,13.12
2022-10-01T00:51:19.267Z,13.07
2022-10-01T00:52:26.614Z,13.05
2022-10-01T00:53:32.892Z,13.05
2022-10-01T00:55:01.758Z,13.05
2022-10-01T00:56:06.507Z,13.04
2022-10-01T00:57:09.531Z,13.03
2022-10-01T00:58:15.072Z,13.02
2022-10-01T00:59:18.430Z,13.02
2022-10-01T01:00:22.017Z,13.02
2022-10-01T01:01:25.231Z,13.01
2022-10-01T01:02:28.228Z,13.00
2022-10-01T01:03:31.317Z,12.98
2022-10-01T01:04:34.167Z,12.98
2022-10-01T01:05:37.212Z,12.95
2022-10-01T01:06:40.695Z,12.98
2022-10-01T01:07:48.453Z,12.97
2022-10-01T01:08:55.358Z,12.98
2022-10-01T01:09:58.441Z,12.98
2022-10-01T01:11:23.116Z,12.96
2022-10-01T01:12:51.556Z,12.93
2022-10-01T01:14:07.172Z,12.94
2022-10-01T01:15:16.288Z,12.98
2022-10-01T01:16:45.238Z,12.98
2022-10-01T01:18:07.779Z,12.96
2022-10-01T01:19:13.499Z,12.92
2022-10-01T01:21:10.459Z,12.92
2022-10-01T01:22:15.222Z,12.93
2022-10-01T01:23:18.050Z,12.94
2022-10-01T01:24:32.583Z,12.91
2022-10-01T01:25:52.563Z,12.92
2022-10-01T01:27:34.111Z,12.93
2022-10-01T01:28:50.843Z,12.91
2022-10-01T01:30:06.897Z,12.92
2022-10-01T01:31:18.939Z,12.92
2022-10-01T01:32:26.743Z,12.92
2022-10-01T01:33:32.631Z,12.95
2022-10-01T01:34:37.468Z,12.94
2022-10-01T01:36:07.266Z,13.01
2022-10-01T01:37:14.669Z,13.02
2022-10-01T01:38:24.723Z,13.02
2022-10-01T01:39:32.363Z,12.99
2022-10-01T01:40:38.143Z,13.03
2022-10-01T01:41:50.404Z,13.04
2022-10-01T01:42:54.392Z,13.01
2022-10-01T01:44:02.506Z,13.02
2022-10-01T01:45:10.526Z,13.02
2022-10-01T01:46:17.939Z,12.98
2022-10-01T01:47:23.144Z,12.99
2022-10-01T01:48:28.470Z,12.98
2022-10-01T01:49:32.155Z,13.00
2022-10-01T01:50:42.526Z,12.98
2022-10-01T01:52:04.735Z,12.97
2022-10-01T01:53:07.482Z,12.99
2022-10-01T01:54:10.419Z,13.02
2022-10-01T01:55:13.227Z,13.01
2022-10-01T01:56:17.719Z,13.03
2022-10-01T01:57:21.375Z,13.02
2022-10-01T01:58:27.111Z,13.01
2022-10-01T01:59:33.368Z,12.98
2022-10-01T02:00:36.939Z,13.01
2022-10-01T02:01:44.459Z,13.07
2022-10-01T02:02:54.766Z,13.10
2022-10-01T02:03:58.083Z,13.12
2022-10-01T02:05:05.375Z,13.29
2022-10-01T02:06:28.464Z,13.27
2022-10-01T02:07:54.835Z,13.24
2022-10-01T02:09:04.533Z,13.33
2022-10-01T02:10:25.420Z,13.33
2022-10-01T02:11:30.256Z,13.32
2022-10-01T02:12:42.434Z,13.35
2022-10-01T02:14:11.491Z,13.40
2022-10-01T02:15:29.791Z,13.41
2022-10-01T02:17:01.722Z,13.45
2022-10-01T02:18:19.173Z,13.42
2022-10-01T02:19:49.417Z,13.60
2022-10-01T02:21:28.823Z,13.59
2022-10-01T02:22:46.074Z,13.56
2022-10-01T02:23:58.683Z,13.54
2022-10-01T02:25:05.820Z,13.60
2022-10-01T02:26:15.430Z,13.63
2022-10-01T02:27:29.404Z,13.59
2022-10-01T02:28:37.502Z,13.51
2022-10-01T02:29:43.048Z,13.46
2022-10-01T02:30:47.376Z,13.46
2022-10-01T02:31:53.710Z,13.44
2022-10-01T02:33:00.195Z,13.43
2022-10-01T02:34:09.697Z,13.43
2022-10-01T02:35:18.481Z,13.48
2022-10-01T02:36:24.376Z,13.46
2022-10-01T02:37:28.642Z,13.43
2022-10-01T02:38:33.690Z,13.41
2022-10-01T02:39:41.258Z,13.42
2022-10-01T02:40:46.666Z,13.39
2022-10-01T02:41:51.941Z,13.43
2022-10-01T02:43:01.640Z,13.45
2022-10-01T02:44:12.742Z,13.46
2022-10-01T02:45:19.804Z,13.40
2022-10-01T02:46:45.559Z,13.45
2022-10-01T02:47:57.609Z,13.39
2022-10-01T02:49:03.104Z,13.35
2022-10-01T02:50:08.532Z,13.38
2022-10-01T02:51:15.343Z,13.37
2022-10-01T02:52:48.527Z,13.37
2022-10-01T02:54:01.808Z,13.33
2022-10-01T02:55:11.185Z,13.37
2022-10-01T02:56:35.139Z,13.35
2022-10-01T02:57:41.988Z,13.34
2022-10-01T02:58:44.989Z,13.42
2022-10-01T02:59:50.915Z,13.46
2022-10-01T03:00:53.752Z,13.46
2022-10-01T03:01:56.715Z,13.45
2022-10-01T03:02:59.769Z,13.42
2022-10-01T03:04:03.051Z,13.45
2022-10-01T03:05:06.527Z,13.52
2022-10-01T03:06:09.456Z,13.51
2022-10-01T03:07:15.789Z,13.48
2022-10-01T03:08:19.703Z,13.48
2022-10-01T03:09:25.919Z,13.52
2022-10-01T03:10:28.774Z,13.47
2022-10-01T03:11:31.904Z,13.45
2022-10-01T03:12:35.934Z,13.44
2022-10-01T03:13:38.798Z,13.52
2022-10-01T03:14:42.260Z,13.64
2022-10-01T03:15:46.804Z,13.60
2022-10-01T03:16:49.662Z,13.53
2022-10-01T03:17:53.226Z,13.49
2022-10-01T03:18:56.435Z,13.47
2022-10-01T03:19:59.288Z,13.44
2022-10-01T03:21:02.007Z,13.66
2022-10-01T03:22:05.308Z,13.87
2022-10-01T03:23:08.077Z,13.92
2022-10-01T03:24:11.096Z,13.99
2022-10-01T03:25:17.196Z,13.94
2022-10-01T03:26:20.114Z,13.87
2022-10-01T03:27:23.669Z,13.87
2022-10-01T03:28:26.638Z,13.82
2022-10-01T03:29:29.547Z,13.72
2022-10-01T03:30:34.170Z,13.68
2022-10-01T03:31:38.525Z,13.66
2022-10-01T03:32:41.526Z,13.61
2022-10-01T03:33:44.455Z,13.64
2022-10-01T03:34:47.333Z,13.61
2022-10-01T03:35:50.216Z,13.56
2022-10-01T03:36:53.108Z,13.54
2022-10-01T03:37:56.168Z,13.54
2022-10-01T03:38:59.375Z,13.54
2022-10-01T03:40:02.540Z,13.53
2022-10-01T03:41:05.592Z,13.51
2022-10-01T03:42:09.486Z,13.55
2022-10-01T03:43:12.574Z,13.53
2022-10-01T03:44:15.422Z,13.51
2022-10-01T03:45:18.251Z,13.48
2022-10-01T03:46:21.897Z,13.54
2022-10-01T03:47:26.751Z,13.54
2022-10-01T03:48:30.606Z,13.45
2022-10-01T03:49:34.920Z,13.39
2022-10-01T03:50:37.740Z,13.40
2022-10-01T03:51:40.694Z,13.40
2022-10-01T03:52:45.160Z,13.41
2022-10-01T03:53:48.204Z,13.37
2022-10-01T03:54:50.964Z,13.40
2022-10-01T03:55:55.068Z,13.37
2022-10-01T03:56:58.827Z,13.37
2022-10-01T03:58:02.416Z,13.38
2022-10-01T03:59:11.767Z,13.41
2022-10-01T04:00:14.880Z,13.42
2022-10-01T04:01:18.215Z,13.43
2022-10-01T04:02:22.318Z,13.43
2022-10-01T04:03:25.249Z,13.49
2022-10-01T04:04:29.289Z,13.55
2022-10-01T04:05:32.112Z,13.52
2022-10-01T04:06:34.857Z,13.52
2022-10-01T04:07:38.042Z,13.53
2022-10-01T04:08:41.055Z,13.55
2022-10-01T04:09:47.934Z,13.57
2022-10-01T04:10:51.072Z,13.57
2022-10-01T04:11:54.239Z,13.56
2022-10-01T04:12:56.986Z,13.53
2022-10-01T04:13:59.958Z,13.50
2022-10-01T04:15:02.681Z,13.48
2022-10-01T04:16:07.256Z,13.48
2022-10-01T04:17:10.329Z,13.46
2022-10-01T04:18:13.164Z,13.47
2022-10-01T04:19:16.417Z,13.44
2022-10-01T04:20:19.188Z,13.46
2022-10-01T04:21:22.114Z,13.50
2022-10-01T04:22:24.795Z,13.50
2022-10-01T04:23:27.962Z,13.47
2022-10-01T04:24:30.661Z,13.46
2022-10-01T04:25:33.559Z,13.46
2022-10-01T04:26:36.363Z,13.47
2022-10-01T04:27:43.473Z,13.43
2022-10-01T04:28:47.113Z,13.38
2022-10-01T04:29:49.895Z,13.39
2022-10-01T04:31:12.798Z,13.38
2022-10-01T04:32:17.302Z,13.35
2022-10-01T04:33:20.057Z,13.34
2022-10-01T04:34:42.815Z,13.36
2022-10-01T04:35:45.990Z,13.35
2022-10-01T04:36:49.051Z,13.35
2022-10-01T04:37:59.426Z,13.36
2022-10-01T04:39:02.932Z,13.36
2022-10-01T04:40:06.996Z,13.38
2022-10-01T04:41:10.412Z,13.35
2022-10-01T04:42:16.148Z,13.39
2022-10-01T04:43:18.919Z,13.40
2022-10-01T04:44:21.691Z,13.38
2022-10-01T04:45:24.583Z,13.34
2022-10-01T04:46:29.035Z,13.38
2022-10-01T04:47:34.575Z,13.35
2022-10-01T04:48:40.938Z,13.37
2022-10-01T04:49:43.794Z,13.43
2022-10-01T04:50:46.647Z,13.39
2022-10-01T04:51:49.542Z,13.51
2022-10-01T04:52:53.017Z,13.51
2022-10-01T04:53:56.031Z,13.47
2022-10-01T04:54:58.810Z,13.55
2022-10-01T04:56:02.109Z,13.53
2022-10-01T04:57:04.896Z,13.51
2022-10-01T04:58:07.890Z,13.53
2022-10-01T04:59:10.689Z,13.54
2022-10-01T05:00:17.470Z,13.53
2022-10-01T05:01:20.317Z,13.55
2022-10-01T05:02:23.264Z,13.54
2022-10-01T05:03:26.238Z,13.57
2022-10-01T05:04:28.982Z,13.64
2022-10-01T05:05:33.332Z,13.62
2022-10-01T05:06:36.545Z,13.59
2022-10-01T05:07:40.586Z,13.56
2022-10-01T05:08:43.871Z,13.55
2022-10-01T05:09:46.676Z,13.53
2022-10-01T05:10:49.532Z,13.54
2022-10-01T05:11:52.291Z,13.55
2022-10-01T05:12:55.184Z,13.53
2022-10-01T05:13:58.067Z,13.54
2022-10-01T05:15:00.875Z,13.53
2022-10-01T05:16:07.781Z,13.55
2022-10-01T05:17:10.669Z,13.57
2022-10-01T05:18:13.447Z,13.55
2022-10-01T05:19:16.464Z,13.55
2022-10-01T05:20:22.660Z,13.57
2022-10-01T05:21:25.449Z,13.56
2022-10-01T05:22:28.811Z,13.58
2022-10-01T05:23:31.831Z,13.64
2022-10-01T05:24:34.552Z,13.72
2022-10-01T05:25:37.370Z,13.84
2022-10-01T05:26:40.200Z,13.84
2022-10-01T05:27:43.299Z,13.91
2022-10-01T05:28:46.220Z,13.90
2022-10-01T05:29:49.249Z,13.89
2022-10-01T05:30:52.017Z,13.85
2022-10-01T05:31:55.280Z,13.86
2022-10-01T05:33:00.591Z,13.90
2022-10-01T05:34:03.673Z,13.88
2022-10-01T05:35:08.723Z,14.03
2022-10-01T05:36:15.814Z,14.00
2022-10-01T05:37:20.393Z,14.06
2022-10-01T05:38:23.545Z,14.05
2022-10-01T05:39:26.339Z,14.05
2022-10-01T05:40:30.934Z,14.01
2022-10-01T05:41:33.876Z,13.95
2022-10-01T05:42:36.954Z,13.94
2022-10-01T05:43:39.808Z,13.90
2022-10-01T05:44:46.382Z,13.93
2022-10-01T05:45:49.972Z,13.94
2022-10-01T05:46:53.634Z,14.08
2022-10-01T05:48:02.310Z,14.12
2022-10-01T05:49:07.464Z,14.17
2022-10-01T05:50:10.380Z,14.14
2022-10-01T05:51:16.424Z,14.08
2022-10-01T05:52:19.367Z,14.09
2022-10-01T05:53:23.879Z,14.12
2022-10-01T05:54:29.689Z,14.05
2022-10-01T05:55:35.002Z,14.02
2022-10-01T05:56:38.662Z,13.95
2022-10-01T05:57:41.640Z,13.97
2022-10-01T05:58:44.839Z,13.95
2022-10-01T05:59:47.660Z,13.93
2022-10-01T06:00:50.599Z,13.91
2022-10-01T06:01:53.464Z,13.90
2022-10-01T06:03:00.953Z,13.92
2022-10-01T06:04:04.122Z,13.91
2022-10-01T06:05:07.451Z,13.91
2022-10-01T06:06:10.477Z,13.91
2022-10-01T06:07:14.153Z,13.96
2022-10-01T06:08:17.146Z,13.99
2022-10-01T06:09:20.641Z,13.98
2022-10-01T06:10:42.258Z,13.98
2022-10-01T06:11:49.860Z,14.07
2022-10-01T06:12:53.235Z,14.04
2022-10-01T06:13:56.117Z,14.04
2022-10-01T06:14:59.014Z,14.05
2022-10-01T06:16:02.076Z,14.05
2022-10-01T06:17:04.999Z,14.06
2022-10-01T06:18:09.586Z,14.08
2022-10-01T06:19:12.499Z,14.10
2022-10-01T06:20:17.750Z,14.11
2022-10-01T06:21:20.661Z,14.13
2022-10-01T06:22:23.530Z,14.15
2022-10-01T06:23:26.293Z,14.24
2022-10-01T06:24:30.439Z,14.27
2022-10-01T06:25:35.287Z,14.27
2022-10-01T06:26:38.203Z,14.27
2022-10-01T06:27:41.051Z,14.31
2022-10-01T06:28:43.825Z,14.33
2022-10-01T06:29:46.816Z,14.34
2022-10-01T06:30:50.313Z,14.33
2022-10-01T06:31:53.104Z,14.35
2022-10-01T06:33:03.875Z,14.34
2022-10-01T06:34:06.644Z,14.36
2022-10-01T06:35:09.698Z,14.37
2022-10-01T06:36:12.679Z,14.39
2022-10-01T06:37:15.482Z,14.44
2022-10-01T06:38:21.213Z,14.45
2022-10-01T06:39:23.948Z,14.46
2022-10-01T06:40:26.831Z,14.55
2022-10-01T06:41:29.639Z,14.55
2022-10-01T06:42:32.397Z,14.52
2022-10-01T06:43:35.172Z,14.51
2022-10-01T06:44:37.923Z,14.50
2022-10-01T06:45:42.798Z,14.50
2022-10-01T06:46:46.155Z,14.53
2022-10-01T06:47:55.118Z,14.56
2022-10-01T06:48:57.970Z,14.57
2022-10-01T06:50:00.793Z,14.54
2022-10-01T06:51:04.007Z,14.53
2022-10-01T06:52:25.238Z,14.53
2022-10-01T06:53:31.770Z,14.57
2022-10-01T06:54:34.564Z,14.55
2022-10-01T06:55:39.806Z,14.54
2022-10-01T06:56:42.977Z,14.53
2022-10-01T06:57:46.959Z,14.50
2022-10-01T06:58:49.657Z,14.49
2022-10-01T06:59:52.712Z,14.47
2022-10-01T07:01:00.449Z,14.54
2022-10-01T07:02:05.299Z,14.51
2022-10-01T07:03:11.506Z,14.50
2022-10-01T07:04:14.346Z,14.53
2022-10-01T07:05:17.295Z,14.52
2022-10-01T07:06:20.446Z,14.51
2022-10-01T07:07:25.148Z,14.47
2022-10-01T07:08:31.165Z,14.49
2022-10-01T07:09:34.044Z,14.50
2022-10-01T07:10:38.375Z,14.51
2022-10-01T07:11:41.773Z,14.53
2022-10-01T07:12:44.655Z,14.50
2022-10-01T07:13:51.102Z,14.50
2022-10-01T07:14:56.507Z,14.49
2022-10-01T07:15:59.467Z,14.55
2022-10-01T07:17:02.330Z,14.51
2022-10-01T07:18:06.286Z,14.50
2022-10-01T07:19:09.144Z,14.51
2022-10-01T07:20:13.356Z,14.54
2022-10-01T07:21:16.147Z,14.50
2022-10-01T07:22:19.674Z,14.49
2022-10-01T07:23:24.676Z,14.46
2022-10-01T07:24:27.712Z,14.43
2022-10-01T07:25:30.855Z,14.41
2022-10-01T07:26:33.698Z,14.41
2022-10-01T07:27:37.537Z,14.42
2022-10-01T07:28:40.461Z,14.47
2022-10-01T07:29:43.688Z,14.51
2022-10-01T07:30:56.770Z,14.56
2022-10-01T07:32:01.410Z,14.58
2022-10-01T07:33:04.226Z,14.67
2022-10-01T07:34:07.021Z,14.81
2022-10-01T07:35:10.202Z,14.76
2022-10-01T07:36:13.622Z,14.75
2022-10-01T07:37:16.560Z,14.75
2022-10-01T07:38:22.857Z,14.77
2022-10-01T07:39:25.801Z,14.78
2022-10-01T07:40:28.618Z,14.77
2022-10-01T07:41:31.690Z,14.79
2022-10-01T07:42:35.797Z,14.83
2022-10-01T07:43:41.699Z,14.84
2022-10-01T07:44:44.593Z,14.87
2022-10-01T07:45:47.474Z,14.85
2022-10-01T07:46:50.599Z,14.86
2022-10-01T07:47:57.804Z,14.88
2022-10-01T07:49:00.634Z,14.87
2022-10-01T07:50:04.371Z,14.86
2022-10-01T07:51:07.821Z,14.94
2022-10-01T07:52:13.275Z,14.99
2022-10-01T07:53:17.032Z,14.99
2022-10-01T07:54:20.405Z,14.98
2022-10-01T07:55:26.793Z,15.00
2022-10-01T07:56:29.610Z,15.08
2022-10-01T07:57:34.530Z,15.13
2022-10-01T07:58:37.596Z,15.16
2022-10-01T07:59:41.180Z,15.21
2022-10-01T08:00:44.146Z,15.21
2022-10-01T08:01:54.090Z,15.23
2022-10-01T08:02:57.910Z,15.21
2022-10-01T08:04:00.957Z,15.24
2022-10-01T08:05:19.025Z,15.29
2022-10-01T08:06:25.616Z,15.31
2022-10-01T08:07:31.716Z,15.36
2022-10-01T08:08:34.721Z,15.36
2022-10-01T08:09:40.086Z,15.38
2022-10-01T08:10:43.058Z,15.44
2022-10-01T08:11:46.216Z,15.46
2022-10-01T08:12:49.203Z,15.62
2022-10-01T08:13:52.067Z,15.65
2022-10-01T08:14:56.162Z,15.58
2022-10-01T08:15:58.931Z,15.52
2022-10-01T08:17:01.898Z,15.53
2022-10-01T08:18:05.328Z,15.52
2022-10-01T08:19:08.287Z,15.49
2022-10-01T08:20:14.068Z,15.49
2022-10-01T08:21:16.889Z,15.45
2022-10-01T08:22:19.740Z,15.45
2022-10-01T08:23:22.513Z,15.51
2022-10-01T08:24:25.673Z,15.51
2022-10-01T08:25:28.576Z,15.48
2022-10-01T08:26:31.868Z,15.58
2022-10-01T08:27:34.689Z,15.57
2022-10-01T08:28:37.701Z,15.59
2022-10-01T08:29:43.725Z,15.57
2022-10-01T08:30:46.536Z,15.47
2022-10-01T08:31:49.443Z,15.38
2022-10-01T08:33:00.701Z,15.35
2022-10-01T08:34:03.529Z,15.38
2022-10-01T08:35:06.803Z,15.36
2022-10-01T08:36:09.734Z,15.35
2022-10-01T08:37:12.587Z,15.35
2022-10-01T08:38:15.916Z,15.42
2022-10-01T08:39:19.087Z,15.49
2022-10-01T08:40:22.905Z,15.48
2022-10-01T08:41:53.914Z,15.44
2022-10-01T08:43:07.854Z,15.41
2022-10-01T08:44:31.134Z,15.35
2022-10-01T08:45:34.859Z,15.36
2022-10-01T08:46:38.094Z,15.38
2022-10-01T08:47:47.342Z,15.43
2022-10-01T08:49:17.822Z,15.49
2022-10-01T08:50:29.500Z,15.54
2022-10-01T08:51:47.228Z,15.68
2022-10-01T08:52:58.556Z,15.79
2022-10-01T08:54:04.933Z,15.81
2022-10-01T08:55:20.229Z,15.91
2022-10-01T08:56:34.958Z,15.95
2022-10-01T08:57:43.471Z,15.90
2022-10-01T08:58:51.329Z,16.03
2022-10-01T09:00:01.020Z,16.01
2022-10-01T09:01:04.121Z,15.98
2022-10-01T09:02:27.475Z,16.02
2022-10-01T09:03:32.727Z,16.04
2022-10-01T09:04:35.634Z,16.08
2022-10-01T09:06:04.134Z,16.08
2022-10-01T09:07:27.624Z,16.09
2022-10-01T09:09:02.765Z,16.05
2022-10-01T09:10:14.568Z,16.13
2022-10-01T09:11:27.543Z,16.18
2022-10-01T09:12:42.557Z,16.15
2022-10-01T09:14:01.165Z,16.09
2022-10-01T09:15:17.077Z,16.05
2022-10-01T09:16:33.003Z,16.06
2022-10-01T09:17:56.717Z,16.09
2022-10-01T09:19:14.960Z,16.20
2022-10-01T09:20:42.549Z,16.27
2022-10-01T09:21:59.992Z,16.23
2022-10-01T09:23:12.548Z,16.18
2022-10-01T09:24:22.902Z,16.21
2022-10-01T09:25:27.775Z,16.29
2022-10-01T09:26:31.399Z,16.34
2022-10-01T09:27:34.905Z,16.45
2022-10-01T09:28:41.585Z,16.61
2022-10-01T09:29:51.992Z,16.65
2022-10-01T09:31:07.280Z,16.64
2022-10-01T09:32:15.930Z,16.59
2022-10-01T09:33:22.159Z,16.63
2022-10-01T09:34:30.356Z,16.68
2022-10-01T09:35:45.023Z,16.75
2022-10-01T09:37:15.557Z,16.86
2022-10-01T09:38:29.547Z,17.06
2022-10-01T09:39:39.817Z,17.26
2022-10-01T09:40:53.943Z,17.32
2022-10-01T09:41:57.096Z,17.39
2022-10-01T09:43:00.955Z,17.48
2022-10-01T09:44:04.159Z,17.58
2022-10-01T09:45:07.436Z,17.63
2022-10-01T09:46:15.758Z,17.73
2022-10-01T09:47:20.895Z,17.72
2022-10-01T09:48:41.377Z,17.70
2022-10-01T09:49:44.915Z,17.57
2022-10-01T09:50:58.736Z,17.38
2022-10-01T09:52:19.798Z,17.34
2022-10-01T09:53:30.176Z,17.30
2022-10-01T09:54:46.042Z,17.26
2022-10-01T09:55:58.240Z,17.11
2022-10-01T09:57:13.136Z,17.04
2022-10-01T09:58:23.600Z,17.07
2022-10-01T09:59:40.636Z,17.08
2022-10-01T10:00:44.551Z,17.00
2022-10-01T10:01:52.286Z,17.03
2022-10-01T10:02:56.514Z,17.07
2022-10-01T10:03:59.552Z,17.14
2022-10-01T10:05:08.897Z,17.21
2022-10-01T10:06:11.787Z,17.21
2022-10-01T10:07:19.316Z,17.17
2022-10-01T10:08:33.552Z,17.27
2022-10-01T10:09:36.942Z,17.26
2022-10-01T10:10:48.428Z,17.39
2022-10-01T10:11:51.504Z,17.37
2022-10-01T10:13:01.397Z,17.43
2022-10-01T10:14:05.073Z,17.49
2022-10-01T10:15:17.702Z,17.50
2022-10-01T10:16:27.804Z,17.55
2022-10-01T10:17:30.621Z,17.59
2022-10-01T10:18:39.336Z,17.67
2022-10-01T10:19:51.952Z,17.60
2022-10-01T10:20:56.268Z,17.48
2022-10-01T10:22:13.665Z,17.47
2022-10-01T10:23:21.526Z,17.60
2022-10-01T10:24:33.101Z,17.61
2022-10-01T10:25:39.030Z,17.58
2022-10-01T10:26:42.779Z,17.49
2022-10-01T10:27:56.745Z,17.39
2022-10-01T10:29:02.397Z,17.42
2022-10-01T10:30:14.090Z,17.30
2022-10-01T10:31:21.496Z,17.32
2022-10-01T10:32:27.027Z,17.40
2022-10-01T10:33:29.955Z,17.37
2022-10-01T10:34:42.549Z,17.34
2022-10-01T10:35:45.354Z,17.33
2022-10-01T10:36:52.591Z,17.27
2022-10-01T10:37:57.656Z,17.14
2022-10-01T10:39:00.791Z,17.15
2022-10-01T10:40:08.482Z,17.11
2022-10-01T10:41:17.153Z,17.02
2022-10-01T10:42:22.575Z,17.09
2022-10-01T10:43:34.768Z,17.07
2022-10-01T10:44:40.124Z,17.05
2022-10-01T10:45:46.932Z,17.04
2022-10-01T10:46:52.439Z,17.14
2022-10-01T10:47:56.381Z,17.09
2022-10-01T10:49:18.742Z,17.00
2022-10-01T10:50:38.464Z,17.06
2022-10-01T10:51:48.851Z,16.95
2022-10-01T10:52:52.210Z,17.04
2022-10-01T10:53:54.926Z,17.14
2022-10-01T10:55:02.912Z,17.29
2022-10-01T10:56:07.414Z,17.41
2022-10-01T10:57:28.087Z,17.39
2022-10-01T10:58:40.785Z,17.40
2022-10-01T10:59:56.417Z,17.46
2022-10-01T11:01:12.219Z,17.52
2022-10-01T11:02:19.685Z,17.45
2022-10-01T11:03:26.915Z,17.40
2022-10-01T11:04:46.037Z,17.38
2022-10-01T11:05:52.410Z,17.30
2022-10-01T11:06:58.058Z,17.35
2022-10-01T11:08:05.346Z,17.33
2022-10-01T11:09:11.117Z,17.34
2022-10-01T11:10:26.031Z,17.27
2022-10-01T11:11:50.438Z,17.24
2022-10-01T11:13:01.119Z,17.21
2022-10-01T11:14:20.162Z,17.15
2022-10-01T11:15:47.291Z,17.11
2022-10-01T11:17:19.055Z,17.08
2022-10-01T11:18:36.595Z,17.11
2022-10-01T11:19:42.125Z,17.12
2022-10-01T11:21:12.174Z,17.15
2022-10-01T11:22:26.723Z,17.21
2022-10-01T11:23:57.401Z,17.28
2022-10-01T11:25:07.170Z,17.36
2022-10-01T11:26:19.736Z,17.42
2022-10-01T11:27:49.154Z,17.53
2022-10-01T11:28:58.047Z,17.65
2022-10-01T11:30:25.315Z,17.67
2022-10-01T11:31:47.566Z,17.78
2022-10-01T11:33:15.969Z,17.90
2022-10-01T11:34:34.385Z,17.90
2022-10-01T11:36:07.062Z,17.92
2022-10-01T11:37:19.558Z,17.90
2022-10-01T11:38:56.108Z,17.88
2022-10-01T11:40:09.302Z,17.87
2022-10-01T11:41:36.534Z,17.98
2022-10-01T11:42:41.119Z,17.95
2022-10-01T11:43:50.254Z,17.92
2022-10-01T11:45:02.007Z,17.93
2022-10-01T11:46:14.539Z,17.96
2022-10-01T11:47:17.364Z,18.05
2022-10-01T11:48:31.518Z,18.08
2022-10-01T11:50:00.054Z,18.07
2022-10-01T11:51:12.699Z,18.09
2022-10-01T11:52:20.922Z,18.18
2022-10-01T11:53:33.973Z,18.26
2022-10-01T11:54:55.987Z,18.35
2022-10-01T11:56:35.082Z,18.31
2022-10-01T11:57:57.135Z,18.28
2022-10-01T11:59:06.316Z,18.19
2022-10-01T12:00:13.320Z,18.10
2022-10-01T12:01:22.333Z,18.05
2022-10-01T12:02:50.687Z,18.06
2022-10-01T12:03:53.500Z,18.02
2022-10-01T12:05:01.702Z,18.05
2022-10-01T12:06:09.632Z,18.05
2022-10-01T12:07:30.512Z,18.07
2022-10-01T12:08:38.440Z,18.04
2022-10-01T12:10:09.150Z,18.01
2022-10-01T12:11:27.354Z,18.12
2022-10-01T12:12:57.188Z,18.07
2022-10-01T12:14:09.409Z,18.08
2022-10-01T12:15:53.961Z,18.11
2022-10-01T12:17:03.914Z,18.09
2022-10-01T12:18:29.781Z,18.20
2022-10-01T12:19:36.867Z,18.16
2022-10-01T12:20:48.127Z,18.13
2022-10-01T12:22:00.058Z,18.04
2022-10-01T12:23:07.024Z,17.97
2022-10-01T12:24:16.355Z,17.92
2022-10-01T12:25:24.097Z,17.92
2022-10-01T12:26:52.921Z,17.94
2022-10-01T12:28:03.622Z,17.91
2022-10-01T12:29:25.991Z,17.85
2022-10-01T12:30:40.971Z,17.76
2022-10-01T12:31:53.870Z,17.71
2022-10-01T12:33:38.225Z,17.69
2022-10-01T12:37:10.713Z,17.56
2022-10-01T12:38:32.622Z,17.52
2022-10-01T12:40:01.411Z,17.50
2022-10-01T12:41:16.456Z,17.56
2022-10-01T12:42:43.192Z,17.55
2022-10-01T12:44:18.211Z,17.55
2022-10-01T12:45:23.825Z,17.54
2022-10-01T12:46:44.773Z,17.56
2022-10-01T12:48:11.603Z,17.53
2022-10-01T12:49:23.679Z,17.52
2022-10-01T12:50:44.976Z,17.53
2022-10-01T12:52:03.925Z,17.50
2022-10-01T12:53:25.459Z,17.49
2022-10-01T12:54:34.025Z,17.48
2022-10-01T12:55:37.376Z,17.56
2022-10-01T12:57:25.226Z,17.52
2022-10-01T12:58:47.307Z,17.61
2022-10-01T13:00:10.221Z,17.63
2022-10-01T13:01:30.606Z,17.64
2022-10-01T13:03:18.607Z,17.65
2022-10-01T13:04:45.488Z,17.72
2022-10-01T13:06:03.226Z,17.84
2022-10-01T13:07:14.907Z,17.90
2022-10-01T13:08:17.936Z,17.98
2022-10-01T13:09:38.508Z,18.07
2022-10-01T13:11:21.164Z,18.14
2022-10-01T13:12:38.953Z,18.24
2022-10-01T13:13:43.122Z,18.31
2022-10-01T13:14:46.617Z,18.26
2022-10-01T13:15:55.584Z,18.23
2022-10-01T13:17:34.629Z,18.16
2022-10-01T13:18:46.848Z,18.08
2022-10-01T13:20:03.021Z,18.07
2022-10-01T13:21:15.159Z,18.04
2022-10-01T13:22:45.427Z,17.98
2022-10-01T13:24:11.245Z,17.91
2022-10-01T13:25:50.536Z,17.88
2022-10-01T13:27:07.303Z,17.81
2022-10-01T13:28:10.183Z,17.75
2022-10-01T13:29:50.609Z,17.71
2022-10-01T13:31:01.703Z,17.69
2022-10-01T13:32:46.771Z,17.62
2022-10-01T13:33:57.237Z,17.55
2022-10-01T13:35:24.380Z,17.51
2022-10-01T13:36:35.919Z,17.51
2022-10-01T13:37:40.364Z,17.46
2022-10-01T13:38:46.368Z,17.44
2022-10-01T13:39:49.299Z,17.39
2022-10-01T13:41:04.885Z,17.35
2022-10-01T13:42:20.671Z,17.33
2022-10-01T13:43:24.863Z,17.31
2022-10-01T13:44:35.017Z,17.31
2022-10-01T13:45:37.906Z,17.32
2022-10-01T13:46:55.087Z,17.37
2022-10-01T13:48:24.743Z,17.42
2022-10-01T13:49:31.150Z,17.42
2022-10-01T13:50:34.759Z,17.45
2022-10-01T13:51:39.488Z,17.47
2022-10-01T13:52:42.377Z,17.56
2022-10-01T13:53:47.836Z,17.65
2022-10-01T13:54:54.780Z,17.78
2022-10-01T13:55:58.997Z,17.84
2022-10-01T13:57:41.482Z,17.84
2022-10-01T13:58:45.249Z,17.74
2022-10-01T14:00:07.719Z,17.79
2022-10-01T14:01:21.315Z,17.85
2022-10-01T14:02:36.235Z,17.88
2022-10-01T14:04:09.949Z,17.86
2022-10-01T14:05:35.813Z,17.89
2022-10-01T14:06:45.240Z,17.88
2022-10-01T14:07:53.835Z,17.80
2022-10-01T14:09:00.816Z,17.74
2022-10-01T14:10:03.969Z,17.69
2022-10-01T14:11:32.083Z,17.67
2022-10-01T14:12:55.249Z,17.63
2022-10-01T14:14:28.674Z,17.51
2022-10-01T14:16:00.905Z,17.40
2022-10-01T14:17:05.735Z,17.33
2022-10-01T14:18:15.715Z,17.26
2022-10-01T14:19:20.771Z,17.20
2022-10-01T14:20:32.942Z,17.12
2022-10-01T14:21:50.354Z,17.06
2022-10-01T14:23:13.421Z,17.02
2022-10-01T14:24:24.826Z,17.03
2022-10-01T14:26:00.489Z,17.08
2022-10-01T14:27:12.923Z,17.05
2022-10-01T14:28:29.435Z,16.87
2022-10-01T14:29:47.343Z,16.79
2022-10-01T14:31:22.068Z,16.81
2022-10-01T14:32:51.559Z,16.84
2022-10-01T14:34:18.765Z,16.85
2022-10-01T14:35:32.819Z,16.83
2022-10-01T14:36:42.281Z,16.83
2022-10-01T14:37:46.138Z,16.77
2022-10-01T14:38:49.182Z,16.82
2022-10-01T14:40:17.079Z,16.80
2022-10-01T14:41:23.960Z,16.77
2022-10-01T14:42:26.785Z,16.76
2022-10-01T14:43:32.739Z,16.73
2022-10-01T14:44:45.221Z,16.74
2022-10-01T14:45:59.327Z,16.76
2022-10-01T14:47:21.902Z,16.73
2022-10-01T14:48:31.771Z,16.72
2022-10-01T14:49:34.854Z,16.74
2022-10-01T14:50:39.225Z,16.74
2022-10-01T14:51:51.757Z,16.75
2022-10-01T14:52:55.323Z,16.78
2022-10-01T14:54:00.566Z,16.71